Time;durP1;ratioP1;P1;durP2;ratioP2;P2;SDS_P1;SDS_P2;PMS_P1;PMS_P2;Temp;Humidity;BMP_temperature;BMP_pressure;BME280_temperature;BME280_humidity;BME280_pressure;Samples;Min_cycle;Max_cycle;Signal;HPM_P1;HPM_P2
2021/05/27 00:00:30;;;;;;;;;;;20.00;60.70;;;;;;5033079;28;1957;-67
2021/05/27 00:02:56;;;;;;;;;;;20.00;60.70;;;;;;5016508;28;1662;-66
2021/05/27 00:05:21;;;;;;;;;;;19.90;60.70;;;;;;5015203;28;1337;-67
2021/05/27 00:07:47;;;;;;;;;;;20.00;60.80;;;;;;5033790;28;1663;-67
2021/05/27 00:10:14;;;;;;;;;;;20.00;60.80;;;;;;5034313;28;1394;-66
2021/05/27 00:12:39;;;;;;;;;;;19.90;60.80;;;;;;5033953;28;1179;-67
2021/05/27 00:15:05;;;;;;;;;;;20.00;60.80;;;;;;5022846;28;1363;-66
2021/05/27 00:17:30;;;;;;;;;;;19.90;60.80;;;;;;5031421;28;1756;-66
2021/05/27 00:19:56;;;;;;;;;;;19.90;60.80;;;;;;5015948;28;1890;-67
2021/05/27 00:22:21;;;;;;;;;;;19.90;60.80;;;;;;5033924;28;1446;-67
2021/05/27 00:24:46;;;;;;;;;;;19.90;60.80;;;;;;5032734;28;1391;-66
2021/05/27 00:27:12;;;;;;;;;;;19.90;60.80;;;;;;5033185;28;1402;-67
2021/05/27 00:29:38;;;;;;;;;;;19.90;60.80;;;;;;5032922;28;1664;-68
2021/05/27 00:32:04;;;;;;;;;;;19.90;60.80;;;;;;5033726;28;1342;-67
2021/05/27 00:34:29;;;;;;;;;;;19.90;60.80;;;;;;5033280;28;1327;-67
2021/05/27 00:36:57;;;;;;;;;;;19.90;60.90;;;;;;5033536;28;1350;-67
2021/05/27 00:39:23;;;;;;;;;;;19.90;60.90;;;;;;5032813;28;1899;-66
2021/05/27 00:41:48;;;;;;;;;;;19.90;60.90;;;;;;5033204;28;1399;-67
2021/05/27 00:44:20;;;;;;;;;;;19.90;60.90;;;;;;5005108;28;1367;-67
2021/05/27 00:46:45;;;;;;;;;;;19.90;60.90;;;;;;5030482;28;1709;-67
2021/05/27 00:49:10;;;;;;;;;;;19.90;60.90;;;;;;5030866;28;1483;-66
2021/05/27 00:51:36;;;;;;;;;;;19.90;60.90;;;;;;5015312;28;1479;-66
2021/05/27 00:54:01;;;;;;;;;;;19.90;60.90;;;;;;5015530;28;1680;-67
2021/05/27 00:56:27;;;;;;;;;;;19.90;61.00;;;;;;5014442;28;1650;-67
2021/05/27 00:58:52;;;;;;;;;;;19.90;60.90;;;;;;5032751;28;1657;-67
2021/05/27 01:01:18;;;;;;;;;;;19.90;61.00;;;;;;5032848;28;1949;-66
2021/05/27 01:03:43;;;;;;;;;;;19.90;61.00;;;;;;5033054;28;1366;-68
2021/05/27 01:06:09;;;;;;;;;;;19.90;61.00;;;;;;5031765;28;1389;-66
2021/05/27 01:08:34;;;;;;;;;;;19.90;61.00;;;;;;5015066;28;1391;-67
2021/05/27 01:10:59;;;;;;;;;;;19.90;61.00;;;;;;5032437;28;1134;-66
2021/05/27 01:13:25;;;;;;;;;;;19.90;61.80;;;;;;5014953;28;1358;-66
2021/05/27 01:15:51;;;;;;;;;;;19.80;61.00;;;;;;5018291;28;1486;-67
2021/05/27 01:18:19;;;;;;;;;;;19.90;61.10;;;;;;5010453;28;1208;-67
2021/05/27 01:20:47;;;;;;;;;;;19.90;61.00;;;;;;5009399;28;1917;-67
2021/05/27 01:23:15;;;;;;;;;;;19.90;61.10;;;;;;5015113;28;1454;-67
2021/05/27 01:25:44;;;;;;;;;;;19.90;61.10;;;;;;5014144;28;1677;-68
2021/05/27 01:28:10;;;;;;;;;;;19.90;61.10;;;;;;5010340;28;1417;-67
2021/05/27 01:30:35;;;;;;;;;;;19.80;61.00;;;;;;5010851;28;1204;-66
2021/05/27 01:33:01;;;;;;;;;;;19.80;61.10;;;;;;5010275;28;1271;-67
2021/05/27 01:35:27;;;;;;;;;;;19.80;61.80;;;;;;5023370;28;1366;-68
2021/05/27 01:37:53;;;;;;;;;;;19.90;61.10;;;;;;5021530;28;1208;-68
2021/05/27 01:40:19;;;;;;;;;;;19.80;61.10;;;;;;5026231;28;1961;-68
2021/05/27 01:42:45;;;;;;;;;;;19.80;61.10;;;;;;5009821;28;1386;-67
2021/05/27 01:45:10;;;;;;;;;;;19.80;61.10;;;;;;5030121;28;1311;-67
2021/05/27 01:47:36;;;;;;;;;;;19.80;61.10;;;;;;5031877;28;1045;-66
2021/05/27 01:50:01;;;;;;;;;;;19.80;61.10;;;;;;5032393;28;1365;-67
2021/05/27 01:52:27;;;;;;;;;;;19.80;61.20;;;;;;5014747;28;1618;-67
2021/05/27 01:54:52;;;;;;;;;;;19.80;61.10;;;;;;5031270;28;1370;-67
2021/05/27 01:57:18;;;;;;;;;;;19.80;61.10;;;;;;5032232;28;1645;-67
2021/05/27 01:59:43;;;;;;;;;;;19.80;61.20;;;;;;5031864;28;1906;-67
2021/05/27 02:02:09;;;;;;;;;;;19.80;61.20;;;;;;5034657;28;1394;-67
2021/05/27 02:04:34;;;;;;;;;;;19.80;61.20;;;;;;5035666;28;1720;-67
2021/05/27 02:07:13;;;;;;;;;;;19.80;61.20;;;;;;5036005;28;1688;-67
2021/05/27 02:09:38;;;;;;;;;;;19.80;61.20;;;;;;5018078;28;1449;-67
2021/05/27 02:12:04;;;;;;;;;;;19.80;61.20;;;;;;5036330;28;1463;-67
2021/05/27 02:14:29;;;;;;;;;;;19.80;61.20;;;;;;5029551;28;1672;-67
2021/05/27 02:16:55;;;;;;;;;;;19.80;61.20;;;;;;5010537;28;1731;-66
2021/05/27 02:19:20;;;;;;;;;;;19.80;61.20;;;;;;5036131;28;1977;-68
2021/05/27 02:21:46;;;;;;;;;;;19.80;61.20;;;;;;5000762;28;1520;-67
2021/05/27 02:24:11;;;;;;;;;;;19.80;61.20;;;;;;5034663;28;1489;-67
2021/05/27 02:26:38;;;;;;;;;;;19.80;61.20;;;;;;5035031;28;1664;-67
2021/05/27 02:29:03;;;;;;;;;;;19.80;61.20;;;;;;5035380;28;1457;-67
2021/05/27 02:31:29;;;;;;;;;;;19.80;61.20;;;;;;5035611;28;1361;-67
2021/05/27 02:33:55;;;;;;;;;;;19.80;61.20;;;;;;5035432;28;1421;-66
2021/05/27 02:36:20;;;;;;;;;;;19.80;61.30;;;;;;5017939;28;1420;-67
2021/05/27 02:38:46;;;;;;;;;;;19.80;61.30;;;;;;5035523;28;1445;-66
2021/05/27 02:41:11;;;;;;;;;;;19.80;61.30;;;;;;5035607;28;1886;-67
2021/05/27 02:43:36;;;;;;;;;;;19.80;61.30;;;;;;5035081;28;1643;-66
2021/05/27 02:46:02;;;;;;;;;;;19.80;61.30;;;;;;5034668;28;1187;-67
2021/05/27 02:48:31;;;;;;;;;;;19.80;61.30;;;;;;5035163;28;1445;-67
2021/05/27 02:50:56;;;;;;;;;;;19.80;61.30;;;;;;5017532;28;1390;-67
2021/05/27 02:53:23;;;;;;;;;;;19.80;61.30;;;;;;5035565;28;1711;-67
2021/05/27 02:55:48;;;;;;;;;;;19.80;61.30;;;;;;5034088;28;1378;-66
2021/05/27 02:58:14;;;;;;;;;;;19.70;61.30;;;;;;5016835;28;1366;-68
2021/05/27 03:00:40;;;;;;;;;;;19.70;61.30;;;;;;5017727;28;1970;-68
2021/05/27 03:03:05;;;;;;;;;;;19.80;61.30;;;;;;5031235;28;1537;-69
2021/05/27 03:05:31;;;;;;;;;;;19.80;61.30;;;;;;5016325;28;1208;-68
2021/05/27 03:07:56;;;;;;;;;;;19.80;61.40;;;;;;5034638;28;1341;-68
2021/05/27 03:10:22;;;;;;;;;;;19.80;61.40;;;;;;5035173;28;1195;-68
2021/05/27 03:12:48;;;;;;;;;;;19.70;61.30;;;;;;5034733;28;1222;-68
2021/05/27 03:15:14;;;;;;;;;;;19.80;61.40;;;;;;5005321;28;1438;-68
2021/05/27 03:17:40;;;;;;;;;;;19.70;61.30;;;;;;5034331;28;1712;-68
2021/05/27 03:20:06;;;;;;;;;;;19.70;61.30;;;;;;5012839;28;1961;-68
2021/05/27 03:22:31;;;;;;;;;;;19.80;61.40;;;;;;5008726;28;1684;-67
2021/05/27 03:24:57;;;;;;;;;;;19.80;61.40;;;;;;5004376;28;1657;-68
2021/05/27 03:27:22;;;;;;;;;;;19.80;61.40;;;;;;5015442;28;1713;-67
2021/05/27 03:29:48;;;;;;;;;;;19.80;61.40;;;;;;5034420;28;1396;-66
2021/05/27 03:32:14;;;;;;;;;;;19.80;61.40;;;;;;5034668;28;1572;-67
2021/05/27 03:34:39;;;;;;;;;;;19.80;61.40;;;;;;5033655;28;1358;-67
2021/05/27 03:37:06;;;;;;;;;;;19.80;61.50;;;;;;5034274;28;1287;-67
2021/05/27 03:39:33;;;;;;;;;;;19.80;61.30;;;;;;5016958;28;1967;-67
2021/05/27 03:41:59;;;;;;;;;;;19.80;61.00;;;;;;5034098;28;1443;-68
2021/05/27 03:44:25;;;;;;;;;;;19.80;61.10;;;;;;5034120;28;1234;-68
2021/05/27 03:46:50;;;;;;;;;;;19.80;61.10;;;;;;5033795;28;1738;-68
2021/05/27 03:49:16;;;;;;;;;;;19.90;61.00;;;;;;5034087;28;1669;-67
2021/05/27 03:51:41;;;;;;;;;;;20.00;60.90;;;;;;5034953;28;1481;-67
2021/05/27 03:54:07;;;;;;;;;;;20.00;61.50;;;;;;5016538;28;1346;-66
2021/05/27 03:56:32;;;;;;;;;;;20.10;60.60;;;;;;5014790;28;1648;-67
2021/05/27 04:01:41;;;;;;;;;;;20.30;60.10;;;;;;5034370;28;1068;-67
2021/05/27 04:09:31;;;;;;;;;;;20.50;59.50;;;;;;5059867;28;1236;-71
2021/05/27 04:14:41;;;;;;;;;;;20.60;59.20;;;;;;5065528;28;1042;-71
2021/05/27 04:17:06;;;;;;;;;;;20.70;59.00;;;;;;5048868;28;1397;-73
2021/05/27 04:19:32;;;;;;;;;;;20.70;58.90;;;;;;5053544;28;1910;-74
2021/05/27 04:21:57;;;;;;;;;;;20.80;58.80;;;;;;5052927;28;1614;-73
2021/05/27 04:24:23;;;;;;;;;;;20.80;58.70;;;;;;5055748;28;1068;-71
2021/05/27 04:26:48;;;;;;;;;;;20.90;58.60;;;;;;5052762;28;1297;-71
2021/05/27 04:29:13;;;;;;;;;;;20.90;58.60;;;;;;5053134;28;1601;-71
2021/05/27 04:31:39;;;;;;;;;;;20.90;58.50;;;;;;5053375;28;1354;-71
2021/05/27 04:34:04;;;;;;;;;;;21.00;58.50;;;;;;5053667;28;1618;-71
2021/05/27 04:36:30;;;;;;;;;;;21.00;58.40;;;;;;5038098;28;2204;-68
2021/05/27 04:38:55;;;;;;;;;;;21.00;58.30;;;;;;5058613;28;1513;-68
2021/05/27 04:41:21;;;;;;;;;;;21.10;58.30;;;;;;5067886;28;1898;-68
2021/05/27 04:43:53;;;;;;;;;;;21.10;58.30;;;;;;5052140;28;1366;-68
2021/05/27 04:46:18;;;;;;;;;;;21.10;58.20;;;;;;5050499;28;1487;-69
2021/05/27 04:48:43;;;;;;;;;;;21.10;58.10;;;;;;5052750;28;1355;-69
2021/05/27 04:51:09;;;;;;;;;;;21.20;58.10;;;;;;5053336;28;1341;-69
2021/05/27 04:53:34;;;;;;;;;;;21.20;58.10;;;;;;5052368;28;1359;-69
2021/05/27 04:56:00;;;;;;;;;;;21.20;58.00;;;;;;5050984;28;1381;-69
2021/05/27 04:58:25;;;;;;;;;;;21.20;58.00;;;;;;5052226;28;1360;-69
2021/05/27 05:00:51;;;;;;;;;;;21.20;57.90;;;;;;5051084;28;1902;-68
2021/05/27 05:03:16;;;;;;;;;;;21.20;57.90;;;;;;5051862;28;1683;-69
2021/05/27 05:05:42;;;;;;;;;;;21.20;57.90;;;;;;5051778;28;1493;-69
2021/05/27 05:08:07;;;;;;;;;;;21.30;58.00;;;;;;5052085;28;1374;-69
2021/05/27 05:10:33;;;;;;;;;;;21.30;57.90;;;;;;5051719;28;1668;-69
2021/05/27 05:12:58;;;;;;;;;;;21.30;57.90;;;;;;5050773;28;1676;-69
2021/05/27 05:15:23;;;;;;;;;;;21.30;57.80;;;;;;5049774;28;1612;-68
2021/05/27 05:17:49;;;;;;;;;;;21.30;57.80;;;;;;5047304;28;1478;-69
2021/05/27 05:20:15;;;;;;;;;;;21.40;57.80;;;;;;5051756;28;1914;-69
2021/05/27 05:22:41;;;;;;;;;;;21.40;57.80;;;;;;5051539;28;1425;-69
2021/05/27 05:25:07;;;;;;;;;;;21.40;57.70;;;;;;5050585;28;1223;-69
2021/05/27 05:27:32;;;;;;;;;;;21.40;57.70;;;;;;5050692;28;1297;-68
2021/05/27 05:29:57;;;;;;;;;;;21.40;57.70;;;;;;5052579;28;1621;-71
2021/05/27 05:32:23;;;;;;;;;;;21.40;57.70;;;;;;5051834;28;1650;-70
2021/05/27 05:34:48;;;;;;;;;;;21.40;57.70;;;;;;5050473;28;1427;-70
2021/05/27 05:37:14;;;;;;;;;;;21.40;57.70;;;;;;5050660;28;1479;-70
2021/05/27 05:39:39;;;;;;;;;;;21.40;57.70;;;;;;5051355;28;1923;-70
2021/05/27 05:42:05;;;;;;;;;;;21.40;57.80;;;;;;5051945;28;1398;-70
2021/05/27 05:44:30;;;;;;;;;;;21.40;57.80;;;;;;5051369;28;1149;-70
2021/05/27 05:46:55;;;;;;;;;;;21.30;57.70;;;;;;5050992;28;1602;-69
2021/05/27 05:49:21;;;;;;;;;;;21.40;57.90;;;;;;5050356;28;1797;-68
2021/05/27 05:51:46;;;;;;;;;;;21.40;57.90;;;;;;5051033;28;1317;-68
2021/05/27 05:54:12;;;;;;;;;;;21.30;57.90;;;;;;5051115;28;1651;-69
2021/05/27 05:56:37;;;;;;;;;;;21.30;57.90;;;;;;5050711;28;1539;-69
2021/05/27 05:59:03;;;;;;;;;;;21.30;58.00;;;;;;5050184;28;1454;-70
2021/05/27 06:01:28;;;;;;;;;;;21.30;58.00;;;;;;5050303;28;1886;-71
2021/05/27 06:03:54;;;;;;;;;;;21.30;58.00;;;;;;5051532;28;1328;-70
2021/05/27 06:06:19;;;;;;;;;;;21.30;58.10;;;;;;5050346;28;1407;-72
2021/05/27 06:08:44;;;;;;;;;;;21.30;58.10;;;;;;5051129;28;1342;-71
2021/05/27 06:11:10;;;;;;;;;;;21.20;58.10;;;;;;5051467;28;1181;-70
2021/05/27 06:13:35;;;;;;;;;;;21.20;58.10;;;;;;5051916;28;1435;-71
2021/05/27 06:16:01;;;;;;;;;;;21.20;58.20;;;;;;5051582;28;1413;-71
2021/05/27 06:18:26;;;;;;;;;;;21.20;58.20;;;;;;5035272;28;1541;-70
2021/05/27 06:20:52;;;;;;;;;;;21.20;58.30;;;;;;5036106;28;1979;-71
2021/05/27 06:23:17;;;;;;;;;;;21.20;58.30;;;;;;5052420;28;886;-71
2021/05/27 06:25:42;;;;;;;;;;;21.20;58.30;;;;;;5051478;28;1440;-72
2021/05/27 06:28:08;;;;;;;;;;;21.10;58.40;;;;;;5051763;28;1067;-72
2021/05/27 06:30:33;;;;;;;;;;;21.20;58.40;;;;;;5052050;28;1849;-71
2021/05/27 06:33:00;;;;;;;;;;;21.10;59.00;;;;;;5050766;28;1592;-72
2021/05/27 06:35:25;;;;;;;;;;;21.10;58.50;;;;;;5049910;28;1436;-72
2021/05/27 06:37:54;;;;;;;;;;;21.10;58.50;;;;;;5052055;28;1394;-72
2021/05/27 06:40:20;;;;;;;;;;;21.10;58.50;;;;;;5051698;28;1959;-72
2021/05/27 06:42:46;;;;;;;;;;;21.10;58.60;;;;;;5052089;28;1363;-72
2021/05/27 06:45:12;;;;;;;;;;;21.10;58.60;;;;;;5051120;28;1372;-72
2021/05/27 06:47:37;;;;;;;;;;;21.10;58.60;;;;;;5041256;28;1065;-71
2021/05/27 06:50:03;;;;;;;;;;;21.10;58.70;;;;;;5053884;28;1265;-71
2021/05/27 06:52:28;;;;;;;;;;;21.00;58.60;;;;;;5055595;28;787;-70
2021/05/27 06:54:54;;;;;;;;;;;21.00;58.70;;;;;;5053432;28;1739;-71
2021/05/27 06:57:20;;;;;;;;;;;21.00;58.80;;;;;;5055352;28;1190;-71
2021/05/27 06:59:45;;;;;;;;;;;21.00;58.80;;;;;;5055310;28;1959;-70
2021/05/27 07:02:10;;;;;;;;;;;21.00;58.80;;;;;;5055222;28;1650;-71
2021/05/27 07:04:36;;;;;;;;;;;21.00;58.80;;;;;;5053702;28;1630;-70
2021/05/27 07:07:01;;;;;;;;;;;21.00;58.90;;;;;;5043164;28;1199;-71
2021/05/27 07:09:27;;;;;;;;;;;21.00;58.90;;;;;;5053434;28;1658;-71
2021/05/27 07:11:52;;;;;;;;;;;21.00;58.90;;;;;;5053824;28;1351;-69
2021/05/27 07:14:18;;;;;;;;;;;20.90;58.90;;;;;;5055119;28;1606;-71
2021/05/27 07:16:43;;;;;;;;;;;20.90;58.90;;;;;;5051526;28;1348;-72
2021/05/27 07:19:08;;;;;;;;;;;20.90;59.00;;;;;;5052702;28;1359;-73
2021/05/27 07:21:34;;;;;;;;;;;20.90;59.00;;;;;;5054749;28;1906;-72
2021/05/27 07:23:59;;;;;;;;;;;20.90;59.00;;;;;;5054784;28;1650;-72
2021/05/27 07:26:25;;;;;;;;;;;20.90;59.10;;;;;;5054148;28;1440;-72
2021/05/27 07:28:50;;;;;;;;;;;20.90;59.10;;;;;;5051091;28;1381;-73
2021/05/27 07:31:16;;;;;;;;;;;20.90;59.70;;;;;;5045290;28;1408;-72
2021/05/27 07:33:41;;;;;;;;;;;20.90;59.10;;;;;;5054609;28;1365;-72
2021/05/27 07:36:07;;;;;;;;;;;20.80;59.10;;;;;;5053745;28;1402;-71
2021/05/27 07:38:33;;;;;;;;;;;20.80;59.10;;;;;;5054467;28;1709;-70
2021/05/27 07:40:58;;;;;;;;;;;20.80;59.20;;;;;;5043053;28;1952;-70
2021/05/27 07:43:24;;;;;;;;;;;20.80;59.20;;;;;;5066711;28;1495;-71
2021/05/27 07:45:49;;;;;;;;;;;20.80;59.20;;;;;;5052789;28;1495;-71
2021/05/27 07:48:15;;;;;;;;;;;20.80;59.30;;;;;;5054341;28;1398;-70
2021/05/27 07:50:40;;;;;;;;;;;20.80;59.30;;;;;;5054313;28;1357;-70
2021/05/27 07:53:07;;;;;;;;;;;20.80;59.30;;;;;;5053364;28;1678;-70
2021/05/27 07:55:33;;;;;;;;;;;20.80;59.30;;;;;;5053441;28;1373;-70
2021/05/27 07:57:59;;;;;;;;;;;20.80;59.40;;;;;;5052997;28;1295;-70
2021/05/27 08:00:24;;;;;;;;;;;20.80;59.40;;;;;;5054185;28;1906;-70
2021/05/27 08:02:50;;;;;;;;;;;20.70;59.40;;;;;;5053992;28;1304;-70
2021/05/27 08:05:15;;;;;;;;;;;20.70;59.40;;;;;;5052883;28;1419;-70
2021/05/27 08:07:41;;;;;;;;;;;20.70;59.40;;;;;;5052372;28;1721;-70
2021/05/27 08:10:10;;;;;;;;;;;20.70;59.50;;;;;;5051267;28;2550;-70
2021/05/27 08:12:36;;;;;;;;;;;20.70;59.50;;;;;;5052950;28;838;-70
2021/05/27 08:15:01;;;;;;;;;;;20.70;59.50;;;;;;5053228;28;1265;-70
2021/05/27 08:17:26;;;;;;;;;;;20.70;59.60;;;;;;5052792;28;1420;-70
2021/05/27 08:19:52;;;;;;;;;;;20.70;59.60;;;;;;5052862;28;1967;-69
2021/05/27 08:22:17;;;;;;;;;;;20.70;59.70;;;;;;5053868;28;1624;-70
2021/05/27 08:24:43;;;;;;;;;;;20.60;59.60;;;;;;5052065;28;1377;-71
2021/05/27 08:27:09;;;;;;;;;;;20.60;59.70;;;;;;5053591;28;1890;-70
2021/05/27 08:29:34;;;;;;;;;;;20.60;59.70;;;;;;5053559;28;1668;-70
2021/05/27 08:32:00;;;;;;;;;;;20.60;59.70;;;;;;5053891;28;1614;-70
2021/05/27 08:34:25;;;;;;;;;;;20.60;59.80;;;;;;5053213;28;1649;-72
2021/05/27 08:36:51;;;;;;;;;;;20.60;59.80;;;;;;5051541;28;1650;-70
2021/05/27 08:39:18;;;;;;;;;;;20.60;59.80;;;;;;5053551;28;1383;-72
2021/05/27 08:41:44;;;;;;;;;;;20.60;59.80;;;;;;5038655;28;1901;-71
2021/05/27 08:44:10;;;;;;;;;;;20.60;59.80;;;;;;5052164;28;1569;-73
2021/05/27 08:46:36;;;;;;;;;;;20.60;59.80;;;;;;5051218;28;1365;-72
2021/05/27 08:49:02;;;;;;;;;;;20.50;59.80;;;;;;5051851;28;1641;-70
2021/05/27 08:51:33;;;;;;;;;;;20.50;59.80;;;;;;5053292;28;1713;-70
2021/05/27 08:53:58;;;;;;;;;;;20.50;59.80;;;;;;5053155;28;1327;-70
2021/05/27 08:56:24;;;;;;;;;;;20.50;59.90;;;;;;5050741;28;1459;-70
2021/05/27 08:58:49;;;;;;;;;;;20.50;59.90;;;;;;5052842;28;1076;-70
2021/05/27 09:01:20;;;;;;;;;;;20.50;59.90;;;;;;5051769;28;1902;-70
2021/05/27 09:03:45;;;;;;;;;;;20.50;59.90;;;;;;5053010;28;1290;-70
2021/05/27 09:06:11;;;;;;;;;;;20.50;59.90;;;;;;5051478;28;1336;-70
2021/05/27 09:08:37;;;;;;;;;;;20.50;59.90;;;;;;5050554;28;1395;-70
2021/05/27 09:11:02;;;;;;;;;;;20.50;60.00;;;;;;5051203;28;1605;-69
2021/05/27 09:13:28;;;;;;;;;;;20.50;60.00;;;;;;5052755;28;1351;-70
2021/05/27 09:15:53;;;;;;;;;;;20.50;60.00;;;;;;5051905;28;1516;-70
2021/05/27 09:18:28;;;;;;;;;;;20.40;60.00;;;;;;5046507;28;1527;-70
2021/05/27 09:20:54;;;;;;;;;;;20.40;60.00;;;;;;5046546;28;2056;-70
2021/05/27 09:23:22;;;;;;;;;;;20.40;60.00;;;;;;5052716;28;1372;-70
2021/05/27 09:25:48;;;;;;;;;;;20.40;60.00;;;;;;5050546;28;1685;-70
2021/05/27 09:28:32;;;;;;;;;;;20.40;60.00;;;;;;5052635;28;1344;-71
2021/05/27 09:30:58;;;;;;;;;;;20.40;60.00;;;;;;5055506;28;1577;-70
2021/05/27 09:33:33;;;;;;;;;;;20.40;60.10;;;;;;5048084;28;1164;-70
2021/05/27 09:36:12;;;;;;;;;;;20.40;60.10;;;;;;5048994;28;1393;-72
2021/05/27 09:38:38;;;;;;;;;;;20.40;60.10;;;;;;5050058;28;1485;-73
2021/05/27 09:41:23;;;;;;;;;;;20.40;60.20;;;;;;5049054;28;1951;-72
2021/05/27 09:43:49;;;;;;;;;;;20.40;60.20;;;;;;5056641;28;1560;-73
2021/05/27 09:46:15;;;;;;;;;;;20.40;60.20;;;;;;5056160;28;1648;-72
2021/05/27 09:48:40;;;;;;;;;;;20.40;60.30;;;;;;5063580;28;1147;-72
2021/05/27 09:51:05;;;;;;;;;;;20.40;60.30;;;;;;5054726;28;1443;-72
2021/05/27 09:53:31;;;;;;;;;;;20.40;60.30;;;;;;5053124;28;1218;-71
2021/05/27 09:55:57;;;;;;;;;;;20.40;60.30;;;;;;5049219;28;1478;-71
2021/05/27 09:58:22;;;;;;;;;;;20.30;60.30;;;;;;5052529;28;1031;-73
2021/05/27 10:00:48;;;;;;;;;;;20.30;60.30;;;;;;5054229;28;1887;-73
2021/05/27 10:03:20;;;;;;;;;;;20.30;60.30;;;;;;5037204;28;1605;-72
2021/05/27 10:05:46;;;;;;;;;;;20.30;60.40;;;;;;5050348;28;1703;-74
2021/05/27 10:08:11;;;;;;;;;;;20.30;60.40;;;;;;5050174;28;1620;-72
2021/05/27 10:10:37;;;;;;;;;;;20.30;60.40;;;;;;5050765;28;1362;-72
2021/05/27 10:13:02;;;;;;;;;;;20.30;60.40;;;;;;5039044;28;1731;-73
2021/05/27 10:15:27;;;;;;;;;;;20.30;60.50;;;;;;5059124;28;1306;-73
2021/05/27 10:17:56;;;;;;;;;;;20.30;60.50;;;;;;5053851;28;1500;-72
2021/05/27 10:20:24;;;;;;;;;;;20.30;60.50;;;;;;5047068;28;1975;-71
2021/05/27 10:22:49;;;;;;;;;;;20.30;60.60;;;;;;5057792;28;1810;-72
2021/05/27 10:25:15;;;;;;;;;;;20.30;60.60;;;;;;5066583;28;1675;-72
2021/05/27 10:27:42;;;;;;;;;;;20.30;60.70;;;;;;5053724;28;1478;-72
2021/05/27 10:30:08;;;;;;;;;;;20.30;60.70;;;;;;5052602;28;2089;-72
2021/05/27 10:32:39;;;;;;;;;;;20.30;60.80;;;;;;5067747;28;1619;-72
2021/05/27 10:35:05;;;;;;;;;;;20.30;60.80;;;;;;5054220;28;1506;-71
2021/05/27 10:37:37;;;;;;;;;;;20.20;60.80;;;;;;5060037;28;1580;-70
2021/05/27 10:40:11;;;;;;;;;;;20.20;60.70;;;;;;5065633;28;1964;-70
2021/05/27 10:43:05;;;;;;;;;;;20.20;60.70;;;;;;5060922;28;1420;-71
2021/05/27 10:45:36;;;;;;;;;;;20.20;60.80;;;;;;5060982;28;1494;-70
2021/05/27 10:48:11;;;;;;;;;;;20.30;60.80;;;;;;5053981;28;1251;-71
2021/05/27 10:51:01;;;;;;;;;;;20.20;60.80;;;;;;5055431;28;1340;-69
2021/05/27 10:53:33;;;;;;;;;;;20.20;60.90;;;;;;5055503;28;1722;-70
2021/05/27 10:55:58;;;;;;;;;;;20.20;60.90;;;;;;5063856;28;1354;-70
2021/05/27 10:58:43;;;;;;;;;;;20.20;60.90;;;;;;5067162;28;1510;-70
2021/05/27 11:01:09;;;;;;;;;;;20.20;60.90;;;;;;5054535;28;1902;-69
2021/05/27 11:03:44;;;;;;;;;;;20.20;60.90;;;;;;5041514;28;1350;-70
2021/05/27 11:06:24;;;;;;;;;;;20.20;61.00;;;;;;5052219;28;1658;-69
2021/05/27 11:11:36;;;;;;;;;;;20.20;61.00;;;;;;5053662;28;1197;-69
2021/05/27 11:14:17;;;;;;;;;;;20.20;61.00;;;;;;5053086;28;1401;-68
2021/05/27 11:17:01;;;;;;;;;;;20.20;61.00;;;;;;5049729;28;1422;-70
2021/05/27 11:27:40;;;;;;;;;;;20.10;61.00;;;;;;5054066;28;1324;-71
2021/05/27 11:30:15;;;;;;;;;;;20.10;61.00;;;;;;5053772;28;1326;-71
2021/05/27 11:32:41;;;;;;;;;;;20.10;61.00;;;;;;5054026;28;1687;-71
2021/05/27 11:35:07;;;;;;;;;;;20.10;61.00;;;;;;5052819;28;1841;-71
2021/05/27 11:37:35;;;;;;;;;;;20.10;61.00;;;;;;5052767;28;1400;-71
2021/05/27 11:40:01;;;;;;;;;;;20.10;60.90;;;;;;5051763;28;1890;-73
2021/05/27 11:42:27;;;;;;;;;;;20.20;61.30;;;;;;5052651;28;1195;-71
2021/05/27 11:45:02;;;;;;;;;;;20.20;61.60;;;;;;5053074;28;1266;-71
2021/05/27 11:47:28;;;;;;;;;;;20.20;61.60;;;;;;5054250;28;1359;-72
2021/05/27 11:50:06;;;;;;;;;;;20.20;61.50;;;;;;5054748;28;1472;-71
2021/05/27 11:52:31;;;;;;;;;;;20.20;61.50;;;;;;5054224;28;1638;-71
2021/05/27 11:54:57;;;;;;;;;;;20.10;61.50;;;;;;5052180;28;1614;-71
2021/05/27 11:57:41;;;;;;;;;;;20.10;61.50;;;;;;5052830;28;1513;-71
2021/05/27 12:00:07;;;;;;;;;;;20.20;61.60;;;;;;5054123;28;1886;-72
2021/05/27 12:02:46;;;;;;;;;;;20.10;61.50;;;;;;5052622;28;1384;-71
2021/05/27 12:05:21;;;;;;;;;;;20.10;61.50;;;;;;5053193;28;1349;-71
2021/05/27 12:07:56;;;;;;;;;;;20.10;61.50;;;;;;5054114;28;1654;-71
2021/05/27 12:10:22;;;;;;;;;;;20.10;61.60;;;;;;5054058;28;1395;-72
2021/05/27 12:12:47;;;;;;;;;;;20.10;61.50;;;;;;5052614;28;1711;-71
2021/05/27 12:15:15;;;;;;;;;;;20.10;61.50;;;;;;5052497;28;1435;-71
2021/05/27 12:17:42;;;;;;;;;;;20.10;61.50;;;;;;5048173;28;1338;-71
2021/05/27 12:20:09;;;;;;;;;;;20.10;61.50;;;;;;5049390;28;1970;-71
2021/05/27 12:22:44;;;;;;;;;;;20.10;61.50;;;;;;5052331;28;1567;-71
2021/05/27 12:25:09;;;;;;;;;;;20.10;61.50;;;;;;5052814;28;1341;-72
2021/05/27 12:27:39;;;;;;;;;;;20.10;61.50;;;;;;5053268;28;1513;-71
2021/05/27 12:30:04;;;;;;;;;;;20.10;61.50;;;;;;5052322;28;1608;-72
2021/05/27 12:32:30;;;;;;;;;;;20.00;61.40;;;;;;5040331;28;1154;-72
2021/05/27 12:34:55;;;;;;;;;;;20.10;61.50;;;;;;5052758;28;1268;-72
2021/05/27 12:37:21;;;;;;;;;;;20.10;61.50;;;;;;5052390;28;895;-71
2021/05/27 12:39:46;;;;;;;;;;;20.00;61.40;;;;;;5052019;28;1953;-71
2021/05/27 12:42:11;;;;;;;;;;;20.10;61.50;;;;;;5052107;28;1706;-71
2021/05/27 12:44:47;;;;;;;;;;;20.00;61.40;;;;;;5051091;28;1009;-71
2021/05/27 12:47:17;;;;;;;;;;;20.00;61.40;;;;;;5041150;28;1233;-71
2021/05/27 12:49:43;;;;;;;;;;;20.00;61.40;;;;;;5053157;28;1330;-71
2021/05/27 12:52:08;;;;;;;;;;;20.00;61.40;;;;;;5053153;28;878;-71
2021/05/27 12:54:34;;;;;;;;;;;20.10;61.50;;;;;;5052730;28;1290;-72
2021/05/27 12:57:00;;;;;;;;;;;20.10;61.50;;;;;;5052000;28;1218;-71
2021/05/27 12:59:26;;;;;;;;;;;20.00;61.50;;;;;;5051282;28;1326;-71
2021/05/27 13:01:56;;;;;;;;;;;20.00;61.50;;;;;;5051975;28;1894;-72
2021/05/27 13:04:22;;;;;;;;;;;20.00;61.50;;;;;;5051508;28;1008;-71
2021/05/27 13:06:47;;;;;;;;;;;20.10;61.50;;;;;;5052318;28;1626;-72
2021/05/27 13:09:14;;;;;;;;;;;20.10;61.50;;;;;;5051414;28;1391;-71
2021/05/27 13:11:40;;;;;;;;;;;20.00;61.50;;;;;;5051725;28;1623;-72
2021/05/27 13:14:13;;;;;;;;;;;20.00;61.50;;;;;;5051701;28;1601;-71
2021/05/27 13:16:39;;;;;;;;;;;20.00;61.50;;;;;;5049484;28;1679;-71
2021/05/27 13:19:06;;;;;;;;;;;20.00;61.50;;;;;;5064995;28;1236;-71
2021/05/27 13:21:35;;;;;;;;;;;20.00;61.50;;;;;;5052399;28;1914;-70
2021/05/27 13:24:21;;;;;;;;;;;20.00;61.50;;;;;;5051826;28;1424;-71
2021/05/27 13:26:48;;;;;;;;;;;20.00;61.50;;;;;;5052233;28;1516;-72
2021/05/27 13:29:13;;;;;;;;;;;20.00;61.60;;;;;;5052775;28;1660;-71
2021/05/27 13:31:40;;;;;;;;;;;20.00;61.50;;;;;;5052672;28;1465;-71
2021/05/27 13:34:05;;;;;;;;;;;20.00;61.60;;;;;;5051269;28;1395;-72
2021/05/27 13:36:50;;;;;;;;;;;20.00;61.60;;;;;;5051800;28;1201;-71
2021/05/27 13:39:19;;;;;;;;;;;20.00;61.60;;;;;;5052836;28;1670;-72
2021/05/27 13:41:45;;;;;;;;;;;20.00;61.60;;;;;;5051381;28;1882;-71
2021/05/27 13:44:10;;;;;;;;;;;20.00;61.60;;;;;;5052967;28;803;-72
2021/05/27 13:46:46;;;;;;;;;;;20.00;61.60;;;;;;5051697;28;1357;-71
2021/05/27 13:49:11;;;;;;;;;;;20.00;61.60;;;;;;5051155;28;1451;-72
2021/05/27 13:51:39;;;;;;;;;;;20.00;62.30;;;;;;5051387;28;1152;-72
2021/05/27 13:54:04;;;;;;;;;;;20.00;61.60;;;;;;5052867;28;819;-71
2021/05/27 13:56:30;;;;;;;;;;;20.00;61.60;;;;;;5051443;28;1204;-72
2021/05/27 13:58:55;;;;;;;;;;;20.00;61.60;;;;;;5056425;28;947;-72
2021/05/27 14:01:21;;;;;;;;;;;20.00;61.60;;;;;;5055317;28;1948;-72
2021/05/27 14:03:46;;;;;;;;;;;20.00;61.60;;;;;;5055283;28;1429;-72
2021/05/27 14:06:12;;;;;;;;;;;20.00;61.70;;;;;;5055526;28;1678;-71
2021/05/27 14:08:37;;;;;;;;;;;20.00;61.70;;;;;;5056287;28;1363;-72
2021/05/27 14:11:03;;;;;;;;;;;20.00;61.70;;;;;;5038374;28;1312;-72
2021/05/27 14:13:28;;;;;;;;;;;20.00;61.70;;;;;;5046124;28;796;-71
2021/05/27 14:15:54;;;;;;;;;;;20.00;61.70;;;;;;5068574;28;1504;-72
2021/05/27 14:18:19;;;;;;;;;;;20.00;61.70;;;;;;5056036;28;1401;-71
2021/05/27 14:20:44;;;;;;;;;;;20.00;61.70;;;;;;5050824;28;1902;-72
2021/05/27 14:23:10;;;;;;;;;;;19.90;61.60;;;;;;5056031;28;951;-73
2021/05/27 14:25:35;;;;;;;;;;;20.00;61.70;;;;;;5055489;28;1728;-71
2021/05/27 14:28:01;;;;;;;;;;;20.00;61.70;;;;;;5055986;28;1450;-71
2021/05/27 14:30:26;;;;;;;;;;;20.00;61.70;;;;;;5056107;28;1325;-72
2021/05/27 14:32:52;;;;;;;;;;;19.90;61.70;;;;;;5055518;28;1185;-72
2021/05/27 14:35:17;;;;;;;;;;;20.00;61.70;;;;;;5055070;28;1383;-71
2021/05/27 14:37:43;;;;;;;;;;;19.90;61.70;;;;;;5056027;28;1440;-71
2021/05/27 14:40:08;;;;;;;;;;;19.90;61.70;;;;;;5055970;28;1953;-71
2021/05/27 14:42:35;;;;;;;;;;;19.90;61.70;;;;;;5055791;28;828;-71
2021/05/27 14:45:01;;;;;;;;;;;20.00;61.70;;;;;;5054854;28;1289;-72
2021/05/27 14:47:26;;;;;;;;;;;19.90;61.70;;;;;;5055820;28;1579;-71
2021/05/27 14:49:52;;;;;;;;;;;19.90;61.70;;;;;;5052365;28;1878;-71